createdAt,value
2019-05-22T00:02:39.956Z,90.49
2019-05-22T00:07:46.997Z,90.22
2019-05-22T00:12:54.336Z,90.55
2019-05-22T00:18:03.750Z,90.48
2019-05-22T00:23:12.773Z,90.00
2019-05-22T00:28:19.744Z,89.85
2019-05-22T00:33:26.380Z,90.25
2019-05-22T00:38:34.018Z,90.96
2019-05-22T00:43:42.653Z,90.17
2019-05-22T00:48:49.053Z,90.61
2019-05-22T00:54:13.486Z,89.52
2019-05-22T00:59:27.162Z,90.23
2019-05-22T01:04:38.420Z,90.29
2019-05-22T01:09:46.764Z,90.34
2019-05-22T01:14:53.747Z,91.22
2019-05-22T01:20:03.227Z,90.92
2019-05-22T01:25:11.661Z,90.25
2019-05-22T01:30:33.789Z,90.93
2019-05-22T01:35:44.788Z,91.07
2019-05-22T01:40:57.730Z,90.84
2019-05-22T01:46:06.671Z,91.08
2019-05-22T01:51:14.702Z,91.28
2019-05-22T01:56:21.565Z,91.41
2019-05-22T02:01:27.957Z,91.65
2019-05-22T02:06:36.585Z,91.97
2019-05-22T02:11:45.848Z,91.45
2019-05-22T02:16:56.713Z,91.84
2019-05-22T02:22:04.033Z,91.02
2019-05-22T02:27:11.552Z,91.61
2019-05-22T02:32:20.689Z,91.80
2019-05-22T02:37:28.661Z,92.63
2019-05-22T02:42:35.098Z,91.64
2019-05-22T02:47:43.059Z,92.22
2019-05-22T02:52:50.167Z,93.81
2019-05-22T02:57:56.809Z,92.56
2019-05-22T03:03:05.195Z,91.52
2019-05-22T03:08:11.732Z,92.36
2019-05-22T03:13:21.514Z,92.08
2019-05-22T03:18:28.487Z,91.76
2019-05-22T03:23:36.355Z,90.47
2019-05-22T03:28:43.207Z,91.37
2019-05-22T03:33:50.161Z,92.21
2019-05-22T03:38:58.430Z,92.08
2019-05-22T03:44:06.773Z,91.80
2019-05-22T03:49:29.159Z,91.34
2019-05-22T03:54:25.763Z,91.04
2019-05-22T03:59:31.972Z,91.60
2019-05-22T04:04:41.003Z,92.70
2019-05-22T04:09:49.746Z,92.33
2019-05-22T04:14:57.056Z,92.14
2019-05-22T04:20:07.792Z,91.43
2019-05-22T04:25:14.801Z,91.97
2019-05-22T04:30:21.599Z,91.29
2019-05-22T04:35:28.062Z,91.33
2019-05-22T04:40:55.497Z,91.49
2019-05-22T04:46:03.013Z,90.73
2019-05-22T04:51:38.997Z,90.34
2019-05-22T04:56:45.114Z,90.54
2019-05-22T05:01:51.558Z,89.83
2019-05-22T05:06:57.854Z,90.19
2019-05-22T05:12:05.523Z,89.70
2019-05-22T05:17:13.617Z,89.54
2019-05-22T05:22:26.558Z,89.84
2019-05-22T05:27:33.854Z,89.23
2019-05-22T05:32:41.190Z,88.94
2019-05-22T05:37:47.979Z,88.57
2019-05-22T05:42:55.270Z,89.93
2019-05-22T05:48:04.122Z,90.08
2019-05-22T05:53:20.224Z,88.51
2019-05-22T05:58:28.575Z,87.94
2019-05-22T06:03:40.051Z,88.44
2019-05-22T06:08:48.087Z,87.62
2019-05-22T06:13:55.309Z,87.87
2019-05-22T06:19:01.787Z,88.07
2019-05-22T06:24:30.065Z,88.06
2019-05-22T06:29:43.932Z,87.69
2019-05-22T06:34:51.124Z,88.45
2019-05-22T06:39:58.857Z,88.38
2019-05-22T06:45:06.053Z,87.82
2019-05-22T06:50:13.392Z,86.74
2019-05-22T06:55:19.812Z,86.82
2019-05-22T07:00:27.406Z,87.74
2019-05-22T07:05:33.849Z,85.90
2019-05-22T07:10:41.693Z,86.51
2019-05-22T07:15:52.265Z,86.82
2019-05-22T07:20:59.654Z,86.41
2019-05-22T07:26:06.776Z,86.05
2019-05-22T07:31:13.405Z,85.55
2019-05-22T07:36:21.953Z,85.65
2019-05-22T07:41:28.541Z,86.01
2019-05-22T07:46:34.746Z,85.08
2019-05-22T07:51:53.146Z,85.08
2019-05-22T07:56:49.856Z,85.18
2019-05-22T08:01:56.195Z,84.60
2019-05-22T08:07:03.593Z,84.80
2019-05-22T08:12:12.127Z,84.04
2019-05-22T08:17:20.493Z,84.43
2019-05-22T08:22:28.413Z,84.35
2019-05-22T08:27:36.044Z,84.75
2019-05-22T08:32:43.718Z,84.81
2019-05-22T08:37:51.395Z,85.34
2019-05-22T08:42:57.882Z,85.31
2019-05-22T08:48:04.360Z,83.34
2019-05-22T08:53:14.040Z,84.92
2019-05-22T08:58:21.685Z,83.41
2019-05-22T09:03:28.596Z,84.02
2019-05-22T09:08:34.874Z,84.67
2019-05-22T09:13:41.431Z,84.43
2019-05-22T09:18:48.137Z,83.95
2019-05-22T09:23:56.034Z,84.33
2019-05-22T09:29:02.530Z,83.23
2019-05-22T09:34:08.546Z,85.25
2019-05-22T09:39:15.717Z,85.19
2019-05-22T09:44:22.499Z,85.89
2019-05-22T09:49:29.502Z,85.63
2019-05-22T09:54:36.063Z,85.19
2019-05-22T09:59:42.164Z,86.23
2019-05-22T10:04:48.595Z,84.97
2019-05-22T10:09:54.754Z,84.19
2019-05-22T10:15:01.473Z,84.00
2019-05-22T10:20:10.802Z,84.57
2019-05-22T10:25:17.537Z,83.68
2019-05-22T10:30:25.291Z,84.17
2019-05-22T10:35:33.313Z,84.30
2019-05-22T10:40:39.758Z,83.65
2019-05-22T10:45:46.298Z,82.25
2019-05-22T10:50:52.933Z,80.33
2019-05-22T10:55:59.878Z,80.96
2019-05-22T11:01:08.545Z,81.69
2019-05-22T11:06:15.151Z,82.18
2019-05-22T11:11:21.830Z,82.76
2019-05-22T11:16:28.985Z,83.62
2019-05-22T11:21:35.869Z,82.16
2019-05-22T11:26:42.028Z,81.92
2019-05-22T11:31:48.851Z,82.26
2019-05-22T11:36:55.909Z,81.50
2019-05-22T11:42:03.110Z,82.03
2019-05-22T11:47:11.038Z,82.20
2019-05-22T11:52:18.665Z,81.51
2019-05-22T11:57:25.936Z,82.03
2019-05-22T12:02:32.877Z,81.38
2019-05-22T12:07:41.826Z,81.75
2019-05-22T12:12:49.649Z,81.66
2019-05-22T12:17:56.114Z,78.66
2019-05-22T12:23:02.682Z,78.18
2019-05-22T12:28:09.057Z,77.65
2019-05-22T12:33:15.313Z,78.65
2019-05-22T12:38:26.570Z,78.45
2019-05-22T12:43:32.697Z,79.32
2019-05-22T12:48:40.749Z,79.10
2019-05-22T12:53:47.718Z,78.86
2019-05-22T12:58:55.682Z,80.16
2019-05-22T13:04:04.965Z,79.95
2019-05-22T13:09:12.318Z,79.98
2019-05-22T13:14:19.246Z,79.48
2019-05-22T13:19:26.414Z,78.69
2019-05-22T13:24:35.222Z,78.44
2019-05-22T13:29:42.825Z,79.11
2019-05-22T13:34:49.999Z,78.33
2019-05-22T13:39:56.559Z,77.71
2019-05-22T13:45:04.857Z,78.43
2019-05-22T13:50:13.282Z,78.43
2019-05-22T13:55:20.586Z,77.41
2019-05-22T14:00:27.488Z,76.58
2019-05-22T14:05:35.323Z,77.63
2019-05-22T14:10:43.995Z,78.26
2019-05-22T14:15:56.367Z,77.85
2019-05-22T14:20:58.337Z,78.21
2019-05-22T14:26:04.779Z,78.25
2019-05-22T14:31:11.988Z,79.07
2019-05-22T14:36:19.355Z,79.27
2019-05-22T14:41:26.545Z,78.42
2019-05-22T14:46:33.731Z,79.84
2019-05-22T14:51:40.580Z,81.01
2019-05-22T14:56:46.828Z,81.20
2019-05-22T15:01:53.574Z,80.67
2019-05-22T15:07:00.486Z,81.88
2019-05-22T15:12:06.967Z,81.97
2019-05-22T15:17:31.119Z,82.03
2019-05-22T15:22:23.016Z,79.70
2019-05-22T15:27:29.949Z,77.69
2019-05-22T15:32:36.320Z,77.42
2019-05-22T15:37:43.666Z,74.22
2019-05-22T15:42:50.329Z,72.58
2019-05-22T15:47:58.411Z,70.38
2019-05-22T15:53:11.095Z,70.11
2019-05-22T15:58:17.956Z,69.22
2019-05-22T16:03:28.073Z,68.68
2019-05-22T16:08:34.810Z,70.41
2019-05-22T16:13:42.032Z,68.87
2019-05-22T16:18:49.937Z,67.66
2019-05-22T16:23:58.636Z,67.06
2019-05-22T16:29:07.006Z,66.64
2019-05-22T16:34:14.570Z,67.08
2019-05-22T16:39:21.770Z,65.46
2019-05-22T16:44:29.122Z,65.73
2019-05-22T16:49:36.913Z,62.67
2019-05-22T16:54:43.505Z,62.33
2019-05-22T16:59:51.141Z,60.99
2019-05-22T17:04:57.468Z,60.43
2019-05-22T17:10:04.653Z,60.51
2019-05-22T17:15:15.641Z,59.79
2019-05-22T17:20:24.769Z,61.04
2019-05-22T17:25:31.679Z,61.68
2019-05-22T17:30:38.522Z,62.99
2019-05-22T17:35:46.032Z,59.99
2019-05-22T17:40:52.185Z,61.51
2019-05-22T17:45:58.480Z,62.60
2019-05-22T17:51:05.228Z,61.15
2019-05-22T17:56:11.645Z,63.20
2019-05-22T18:01:18.697Z,63.39
2019-05-22T18:06:25.730Z,64.42
2019-05-22T18:11:31.943Z,65.50
2019-05-22T18:16:38.284Z,66.71
2019-05-22T18:21:45.151Z,66.31
2019-05-22T18:26:51.473Z,66.60
2019-05-22T18:32:01.871Z,67.96
2019-05-22T18:37:11.378Z,67.70
2019-05-22T18:42:21.442Z,68.85
2019-05-22T18:47:28.142Z,69.82
2019-05-22T18:52:41.074Z,71.75
2019-05-22T18:57:43.409Z,73.64
2019-05-22T19:02:49.607Z,74.83
2019-05-22T19:07:56.387Z,75.10
2019-05-22T19:13:02.728Z,76.29
2019-05-22T19:18:09.481Z,76.46
2019-05-22T19:23:16.039Z,76.94
2019-05-22T19:28:22.622Z,78.43
2019-05-22T19:33:29.311Z,79.58
2019-05-22T19:38:35.800Z,80.23
2019-05-22T19:43:42.181Z,81.12
2019-05-22T19:48:48.972Z,80.84
2019-05-22T19:53:56.067Z,81.09
2019-05-22T19:59:02.908Z,81.02
2019-05-22T20:04:09.931Z,81.17
2019-05-22T20:09:17.096Z,80.43
2019-05-22T20:14:24.362Z,80.02
2019-05-22T20:19:30.846Z,80.27
2019-05-22T20:24:37.641Z,79.75
2019-05-22T20:29:45.522Z,81.47
2019-05-22T20:34:52.054Z,83.13
2019-05-22T20:39:59.654Z,83.00
2019-05-22T20:45:07.008Z,83.42
2019-05-22T20:50:14.506Z,83.81
2019-05-22T20:55:21.268Z,83.67
2019-05-22T21:00:29.071Z,84.27
2019-05-22T21:05:37.487Z,84.72
2019-05-22T21:10:46.999Z,85.02
2019-05-22T21:16:07.456Z,84.81
2019-05-22T21:21:16.024Z,85.41
2019-05-22T21:26:23.253Z,85.25
2019-05-22T21:31:30.288Z,85.18
2019-05-22T21:36:37.132Z,85.13
2019-05-22T21:41:44.041Z,85.07
2019-05-22T21:46:51.906Z,85.22
2019-05-22T21:51:59.500Z,85.02
2019-05-22T21:57:06.711Z,85.83
2019-05-22T22:02:23.186Z,85.79
2019-05-22T22:07:30.513Z,85.75
2019-05-22T22:12:37.181Z,85.39
2019-05-22T22:17:46.176Z,86.60
2019-05-22T22:22:52.563Z,85.41
2019-05-22T22:27:58.797Z,86.14
2019-05-22T22:33:11.021Z,86.89
2019-05-22T22:38:17.938Z,87.45
2019-05-22T22:43:27.690Z,87.31
2019-05-22T22:48:36.741Z,86.65
2019-05-22T22:53:43.902Z,87.33
2019-05-22T22:58:50.704Z,86.96
2019-05-22T23:03:59.085Z,86.40
2019-05-22T23:09:08.292Z,87.07
2019-05-22T23:14:15.428Z,87.18
2019-05-22T23:19:33.658Z,88.56
2019-05-22T23:30:31.989Z,86.62
2019-05-22T23:35:38.240Z,86.54
2019-05-22T23:40:46.036Z,87.03
2019-05-22T23:45:52.897Z,86.15
2019-05-22T23:50:59.827Z,86.98
2019-05-22T23:56:06.773Z,86.23
